createdAt,value
2018-06-15T00:00:39.197Z,65.79
2018-06-15T00:03:08.645Z,65.85
2018-06-15T00:05:38.064Z,65.56
2018-06-15T00:08:07.474Z,65.37
2018-06-15T00:10:36.848Z,65.37
2018-06-15T00:13:06.265Z,65.75
2018-06-15T00:15:35.806Z,65.80
2018-06-15T00:18:05.469Z,65.33
2018-06-15T00:20:34.855Z,65.29
2018-06-15T00:23:04.401Z,65.45
2018-06-15T00:25:34.032Z,65.35
2018-06-15T00:28:03.592Z,65.28
2018-06-15T00:30:33.059Z,65.26
2018-06-15T00:33:02.505Z,65.41
2018-06-15T00:35:32.111Z,65.48
2018-06-15T00:38:01.718Z,65.62
2018-06-15T00:40:31.336Z,65.31
2018-06-15T00:43:00.938Z,65.47
2018-06-15T00:45:30.732Z,65.43
2018-06-15T00:48:00.450Z,65.10
2018-06-15T00:50:29.884Z,65.30
2018-06-15T00:52:59.620Z,65.50
2018-06-15T00:55:29.185Z,65.43
2018-06-15T00:57:58.941Z,65.25
2018-06-15T01:00:28.929Z,65.36
2018-06-15T01:02:59.817Z,65.20
2018-06-15T01:05:29.480Z,65.26
2018-06-15T01:07:58.945Z,65.25
2018-06-15T01:10:28.808Z,65.23
2018-06-15T01:12:58.248Z,64.84
2018-06-15T01:15:27.848Z,65.36
2018-06-15T01:17:57.372Z,64.95
2018-06-15T01:20:26.804Z,65.04
2018-06-15T01:22:56.206Z,64.84
2018-06-15T01:25:25.627Z,65.37
2018-06-15T01:27:55.117Z,65.35
2018-06-15T01:30:24.565Z,65.26
2018-06-15T01:32:53.922Z,64.99
2018-06-15T01:35:25.045Z,65.37
2018-06-15T01:37:54.471Z,65.25
2018-06-15T01:40:24.004Z,65.40
2018-06-15T01:42:53.380Z,65.48
2018-06-15T01:45:22.919Z,65.27
2018-06-15T01:47:52.364Z,65.53
2018-06-15T01:50:26.124Z,65.77
2018-06-15T01:52:55.499Z,65.20
2018-06-15T01:55:28.941Z,65.35
2018-06-15T01:57:58.393Z,65.63
2018-06-15T02:00:29.768Z,65.21
2018-06-15T02:02:59.276Z,65.29
2018-06-15T02:05:30.084Z,65.39
2018-06-15T02:07:59.457Z,65.73
2018-06-15T02:10:28.948Z,65.55
2018-06-15T02:12:58.352Z,65.79
2018-06-15T02:15:30.169Z,65.61
2018-06-15T02:17:59.524Z,65.79
2018-06-15T02:20:28.925Z,65.65
2018-06-15T02:22:58.473Z,65.44
2018-06-15T02:25:27.923Z,65.71
2018-06-15T02:27:57.344Z,65.45
2018-06-15T02:30:30.213Z,65.04
2018-06-15T02:32:59.696Z,65.09
2018-06-15T02:35:29.280Z,65.21
2018-06-15T02:37:58.893Z,64.90
2018-06-15T02:40:28.249Z,64.84
2018-06-15T02:42:58.208Z,64.51
2018-06-15T02:45:27.747Z,64.40
2018-06-15T02:47:57.313Z,64.23
2018-06-15T02:50:31.435Z,64.13
2018-06-15T02:53:00.840Z,64.03
2018-06-15T02:55:30.327Z,63.96
2018-06-15T02:57:59.696Z,63.78
2018-06-15T03:00:29.408Z,63.73
2018-06-15T03:02:58.753Z,63.39
2018-06-15T03:05:28.264Z,63.39
2018-06-15T03:07:57.693Z,63.49
2018-06-15T03:10:27.489Z,63.33
2018-06-15T03:12:56.864Z,63.26
2018-06-15T03:15:26.277Z,63.50
2018-06-15T03:17:55.640Z,63.43
2018-06-15T03:20:29.001Z,62.99
2018-06-15T03:22:59.260Z,63.42
2018-06-15T03:25:28.905Z,62.87
2018-06-15T03:27:58.287Z,63.83
2018-06-15T03:30:28.304Z,64.06
2018-06-15T03:32:57.653Z,63.72
2018-06-15T03:35:27.245Z,64.77
2018-06-15T03:37:56.868Z,64.42
2018-06-15T03:40:29.388Z,64.20
2018-06-15T03:42:58.853Z,63.36
2018-06-15T03:45:28.225Z,63.56
2018-06-15T03:47:58.364Z,63.18
2018-06-15T03:50:29.112Z,62.59
2018-06-15T03:52:58.529Z,62.80
2018-06-15T03:55:28.172Z,62.69
2018-06-15T03:57:57.720Z,62.63
2018-06-15T04:00:27.085Z,62.98
2018-06-15T04:02:56.686Z,63.14
2018-06-15T04:05:26.070Z,62.46
2018-06-15T04:07:55.404Z,62.45
2018-06-15T04:10:30.321Z,61.99
2018-06-15T04:12:59.694Z,62.45
2018-06-15T04:15:29.233Z,62.54
2018-06-15T04:18:06.160Z,62.77
2018-06-15T04:20:37.052Z,62.21
2018-06-15T04:23:06.482Z,62.38
2018-06-15T04:25:35.849Z,62.20
2018-06-15T04:28:05.304Z,62.10
2018-06-15T04:30:34.677Z,62.35
2018-06-15T04:33:04.224Z,62.34
2018-06-15T04:35:33.820Z,61.91
2018-06-15T04:38:03.207Z,62.08
2018-06-15T04:40:32.729Z,61.53
2018-06-15T04:43:02.106Z,61.78
2018-06-15T04:45:32.130Z,61.71
2018-06-15T04:48:01.477Z,61.26
2018-06-15T04:50:32.721Z,60.99
2018-06-15T04:53:02.260Z,61.23
2018-06-15T04:55:31.599Z,61.17
2018-06-15T04:58:00.955Z,61.52
2018-06-15T05:00:30.520Z,60.86
2018-06-15T05:03:00.350Z,60.74
2018-06-15T05:05:30.682Z,60.83
2018-06-15T05:08:00.035Z,61.11
2018-06-15T05:10:30.206Z,60.90
2018-06-15T05:12:59.812Z,60.75
2018-06-15T05:15:29.408Z,60.75
2018-06-15T05:17:58.769Z,60.06
2018-06-15T05:20:28.312Z,59.74
2018-06-15T05:22:57.948Z,59.74
2018-06-15T05:25:28.639Z,60.33
2018-06-15T05:27:57.992Z,60.98
2018-06-15T05:30:28.932Z,60.82
2018-06-15T05:32:58.376Z,61.02
2018-06-15T05:35:27.752Z,60.63
2018-06-15T05:37:57.120Z,61.04
2018-06-15T05:40:26.560Z,60.63
2018-06-15T05:42:56.009Z,59.89
2018-06-15T05:45:27.112Z,60.45
2018-06-15T05:47:56.781Z,58.96
2018-06-15T05:50:26.133Z,59.49
2018-06-15T05:52:55.729Z,59.49
2018-06-15T05:55:25.124Z,59.78
2018-06-15T05:57:54.739Z,59.35
2018-06-15T06:00:24.140Z,58.98
2018-06-15T06:02:53.506Z,57.47
2018-06-15T06:05:24.509Z,57.38
2018-06-15T06:07:53.932Z,57.80
2018-06-15T06:10:23.744Z,57.49
2018-06-15T06:12:53.276Z,57.25
2018-06-15T06:15:28.873Z,56.90
2018-06-15T06:17:58.526Z,56.99
2018-06-15T06:20:29.342Z,56.73
2018-06-15T06:22:58.704Z,56.22
2018-06-15T06:25:28.094Z,56.39
2018-06-15T06:27:57.600Z,55.47
2018-06-15T06:30:27.177Z,56.07
2018-06-15T06:32:56.687Z,57.28
2018-06-15T06:35:26.053Z,57.61
2018-06-15T06:37:55.746Z,57.55
2018-06-15T06:40:25.332Z,58.17
2018-06-15T06:42:54.954Z,57.13
2018-06-15T06:45:27.136Z,58.07
2018-06-15T06:47:56.507Z,57.83
2018-06-15T06:50:29.767Z,57.69
2018-06-15T06:52:59.627Z,57.90
2018-06-15T06:55:31.384Z,58.07
2018-06-15T06:58:00.876Z,58.38
2018-06-15T07:00:30.240Z,57.76
2018-06-15T07:02:59.741Z,57.63
2018-06-15T07:05:29.521Z,57.70
2018-06-15T07:07:58.871Z,57.33
2018-06-15T07:10:34.307Z,57.12
2018-06-15T07:13:03.725Z,57.09
2018-06-15T07:15:33.129Z,56.83
2018-06-15T07:18:02.488Z,57.95
2018-06-15T07:20:32.211Z,57.93
2018-06-15T07:23:02.761Z,56.86
2018-06-15T07:25:32.165Z,57.68
2018-06-15T07:28:01.693Z,57.41
2018-06-15T07:30:32.288Z,57.82
2018-06-15T07:33:01.830Z,57.63
2018-06-15T07:35:31.437Z,57.82
2018-06-15T07:38:01.054Z,57.85
2018-06-15T07:40:30.654Z,57.85
2018-06-15T07:43:00.075Z,58.12
2018-06-15T07:45:29.577Z,57.79
2018-06-15T07:47:59.162Z,57.92
2018-06-15T07:50:28.535Z,58.00
2018-06-15T07:52:57.904Z,57.44
2018-06-15T07:55:27.319Z,56.47
2018-06-15T07:57:56.874Z,55.77
2018-06-15T08:00:26.259Z,56.06
2018-06-15T08:02:55.620Z,56.84
2018-06-15T08:05:25.172Z,56.91
2018-06-15T08:07:54.849Z,57.20
2018-06-15T08:10:24.234Z,56.92
2018-06-15T08:12:53.656Z,57.04
2018-06-15T08:15:23.059Z,57.48
2018-06-15T08:17:52.579Z,56.94
2018-06-15T08:20:22.306Z,57.02
2018-06-15T08:22:51.909Z,56.78
2018-06-15T08:25:21.264Z,56.74
2018-06-15T08:27:50.712Z,56.88
2018-06-15T08:30:20.446Z,56.62
2018-06-15T08:32:50.011Z,56.49
2018-06-15T08:35:19.561Z,56.20
2018-06-15T08:37:48.961Z,55.26
2018-06-15T08:40:18.817Z,55.87
2018-06-15T08:42:48.393Z,56.01
2018-06-15T08:45:18.137Z,54.92
2018-06-15T08:47:47.616Z,55.21
2018-06-15T08:50:17.103Z,52.42
2018-06-15T08:52:46.537Z,51.76
2018-06-15T08:55:16.501Z,53.08
2018-06-15T08:57:46.049Z,53.10
2018-06-15T09:00:15.656Z,52.37
2018-06-15T09:02:45.263Z,51.88
2018-06-15T09:05:15.050Z,51.81
2018-06-15T09:07:44.401Z,51.53
2018-06-15T09:10:14.312Z,51.14
2018-06-15T09:12:43.651Z,51.05
2018-06-15T09:15:13.165Z,50.75
2018-06-15T09:17:42.517Z,50.65
2018-06-15T09:20:12.488Z,51.05
2018-06-15T09:22:44.535Z,50.73
2018-06-15T09:25:17.540Z,50.84
2018-06-15T09:27:50.152Z,50.98
2018-06-15T09:30:19.762Z,51.51
2018-06-15T09:32:49.800Z,50.83
2018-06-15T09:35:20.109Z,50.75
2018-06-15T09:37:49.648Z,50.88
2018-06-15T09:40:22.271Z,50.61
2018-06-15T09:42:56.148Z,50.85
2018-06-15T09:45:25.505Z,50.95
2018-06-15T09:47:54.959Z,51.27
2018-06-15T09:50:26.527Z,50.46
2018-06-15T09:52:57.400Z,51.05
2018-06-15T09:55:27.021Z,51.14
2018-06-15T09:57:56.395Z,50.55
2018-06-15T10:00:30.919Z,49.87
2018-06-15T10:03:00.271Z,50.35
2018-06-15T10:05:29.736Z,49.68
2018-06-15T10:07:59.341Z,50.25
2018-06-15T10:10:32.290Z,49.97
2018-06-15T10:13:02.319Z,49.73
2018-06-15T10:15:31.653Z,49.50
2018-06-15T10:18:01.166Z,50.27
2018-06-15T10:20:30.796Z,49.33
2018-06-15T10:23:00.985Z,50.61
2018-06-15T10:25:30.647Z,49.80
2018-06-15T10:28:00.212Z,49.07
2018-06-15T10:30:29.595Z,48.83
2018-06-15T10:32:59.131Z,46.61
2018-06-15T10:35:28.732Z,48.22
2018-06-15T10:37:58.952Z,47.98
2018-06-15T10:40:28.352Z,46.85
2018-06-15T10:42:57.872Z,44.44
2018-06-15T10:45:27.425Z,44.86
2018-06-15T10:47:57.032Z,45.65
2018-06-15T10:50:26.780Z,44.08
2018-06-15T10:52:56.816Z,44.38
2018-06-15T10:55:26.182Z,43.35
2018-06-15T10:57:55.518Z,43.36
2018-06-15T11:00:25.035Z,43.09
2018-06-15T11:02:54.671Z,42.50
2018-06-15T11:05:24.017Z,42.07
2018-06-15T11:07:53.369Z,41.71
2018-06-15T11:10:23.079Z,41.75
2018-06-15T11:12:52.592Z,41.70
2018-06-15T11:15:22.695Z,40.86
2018-06-15T11:17:52.392Z,41.19
2018-06-15T11:20:21.810Z,41.23
2018-06-15T11:22:51.148Z,41.08
2018-06-15T11:25:20.666Z,40.58
2018-06-15T11:27:50.447Z,39.40
2018-06-15T11:30:20.076Z,39.81
2018-06-15T11:32:49.414Z,40.88
2018-06-15T11:35:19.072Z,40.45
2018-06-15T11:37:48.674Z,40.18
2018-06-15T11:40:18.101Z,39.94
2018-06-15T11:42:47.540Z,38.77
2018-06-15T11:45:16.961Z,39.46
2018-06-15T11:47:46.378Z,40.42
2018-06-15T11:50:15.789Z,39.66
2018-06-15T11:52:45.129Z,39.69
2018-06-15T11:55:14.688Z,39.69
2018-06-15T11:57:44.330Z,39.46
2018-06-15T12:00:15.519Z,39.00
2018-06-15T12:02:45.041Z,39.84
2018-06-15T12:05:14.648Z,41.37
2018-06-15T12:07:44.560Z,40.83
2018-06-15T12:10:14.147Z,41.99
2018-06-15T12:12:44.243Z,41.06
2018-06-15T12:15:13.784Z,41.51
2018-06-15T12:17:43.294Z,42.77
2018-06-15T12:20:12.903Z,42.68
2018-06-15T12:22:42.249Z,43.41
2018-06-15T12:25:12.559Z,43.11
2018-06-15T12:27:41.969Z,43.46
2018-06-15T12:30:11.564Z,44.53
2018-06-15T12:32:41.004Z,45.53
2018-06-15T12:35:10.571Z,44.45
2018-06-15T12:37:39.800Z,44.56
2018-06-15T12:40:09.332Z,44.92
2018-06-15T12:42:38.689Z,45.20
2018-06-15T12:45:08.371Z,45.68
2018-06-15T12:47:37.708Z,45.20
2018-06-15T12:50:07.299Z,45.21
2018-06-15T12:52:36.680Z,45.17
2018-06-15T12:55:06.471Z,44.65
2018-06-15T12:57:36.061Z,44.80
2018-06-15T13:00:05.852Z,44.31
2018-06-15T13:02:35.185Z,44.50
2018-06-15T13:05:04.653Z,44.25
2018-06-15T13:07:34.217Z,43.95
2018-06-15T13:10:03.580Z,44.16
2018-06-15T13:12:33.165Z,44.03
2018-06-15T13:15:02.765Z,44.49
2018-06-15T13:17:32.932Z,44.70
2018-06-15T13:20:02.593Z,44.24
2018-06-15T13:22:32.369Z,44.57
2018-06-15T13:25:01.704Z,44.36
2018-06-15T13:27:31.101Z,43.80
2018-06-15T13:30:00.681Z,44.63
2018-06-15T13:32:30.292Z,44.39
2018-06-15T13:34:59.876Z,45.23
2018-06-15T13:37:29.199Z,45.21
2018-06-15T13:39:58.534Z,44.17
2018-06-15T13:42:28.117Z,44.89
2018-06-15T13:44:57.732Z,44.76
2018-06-15T13:47:27.083Z,44.89
2018-06-15T13:49:56.964Z,44.53
2018-06-15T13:52:26.381Z,44.31
2018-06-15T13:54:55.849Z,44.57
2018-06-15T13:57:25.468Z,45.43
2018-06-15T13:59:55.254Z,44.81
2018-06-15T14:02:24.684Z,46.24
2018-06-15T14:04:54.166Z,45.21
2018-06-15T14:07:23.796Z,45.73
2018-06-15T14:09:53.141Z,45.28
2018-06-15T14:12:22.756Z,46.02
2018-06-15T14:14:52.110Z,46.16
2018-06-15T14:17:21.707Z,46.54
2018-06-15T14:19:51.343Z,46.61
2018-06-15T14:22:20.980Z,46.07
2018-06-15T14:24:50.308Z,45.93
2018-06-15T14:27:19.839Z,45.55
2018-06-15T14:29:49.204Z,45.18
2018-06-15T14:32:18.583Z,45.38
2018-06-15T14:34:47.944Z,45.13
2018-06-15T14:37:17.289Z,45.38
2018-06-15T14:39:46.697Z,45.29
2018-06-15T14:42:16.209Z,45.06
2018-06-15T14:44:45.556Z,43.85
2018-06-15T14:47:14.912Z,45.13
2018-06-15T14:49:44.651Z,44.85
2018-06-15T14:52:13.992Z,44.07
2018-06-15T14:54:43.438Z,44.82
2018-06-15T14:57:13.001Z,43.56
2018-06-15T14:59:42.612Z,43.05
2018-06-15T15:02:12.630Z,44.14
2018-06-15T15:04:42.060Z,43.14
2018-06-15T15:07:11.431Z,44.01
2018-06-15T15:09:41.054Z,43.65
2018-06-15T15:12:10.669Z,43.38
2018-06-15T15:14:40.287Z,41.07
2018-06-15T15:17:09.905Z,42.43
2018-06-15T15:19:39.269Z,41.91
2018-06-15T15:22:08.650Z,41.73
2018-06-15T15:24:38.109Z,41.10
2018-06-15T15:27:07.481Z,41.17
2018-06-15T15:29:37.026Z,40.81
2018-06-15T15:32:06.895Z,40.74
2018-06-15T15:34:39.640Z,41.64
2018-06-15T15:37:09.230Z,40.59
2018-06-15T15:39:38.781Z,40.42
2018-06-15T15:42:08.448Z,40.92
2018-06-15T15:44:37.947Z,41.80
2018-06-15T15:47:07.265Z,40.70
2018-06-15T15:49:36.916Z,41.10
2018-06-15T15:52:06.273Z,41.31
2018-06-15T15:54:35.829Z,40.71
2018-06-15T15:57:05.608Z,41.36
2018-06-15T15:59:35.034Z,40.61
2018-06-15T16:02:04.431Z,40.79
2018-06-15T16:04:34.014Z,40.83
2018-06-15T16:07:03.596Z,40.38
2018-06-15T16:09:32.932Z,41.04
2018-06-15T16:12:02.358Z,41.10
2018-06-15T16:14:31.776Z,41.45
2018-06-15T16:17:01.154Z,41.70
2018-06-15T16:19:30.490Z,41.45
2018-06-15T16:21:59.996Z,41.52
2018-06-15T16:24:29.609Z,41.43
2018-06-15T16:26:58.960Z,41.51
2018-06-15T16:29:28.644Z,41.63
2018-06-15T16:31:58.361Z,42.04
2018-06-15T16:34:27.700Z,42.04
2018-06-15T16:36:57.353Z,42.23
2018-06-15T16:39:26.963Z,42.26
2018-06-15T16:41:56.544Z,42.24
2018-06-15T16:44:25.912Z,42.31
2018-06-15T16:46:55.476Z,42.02
2018-06-15T16:49:25.105Z,43.02
2018-06-15T16:51:54.524Z,43.40
2018-06-15T16:54:24.176Z,43.34
2018-06-15T16:56:53.600Z,43.51
2018-06-15T16:59:22.952Z,43.62
2018-06-15T17:01:52.529Z,43.20
2018-06-15T17:04:22.063Z,42.72
2018-06-15T17:06:51.445Z,43.03
2018-06-15T17:09:21.028Z,43.04
2018-06-15T17:11:50.612Z,42.80
2018-06-15T17:14:19.996Z,43.11
2018-06-15T17:16:49.374Z,42.69
2018-06-15T17:19:18.832Z,42.96
2018-06-15T17:21:48.193Z,42.32
2018-06-15T17:24:17.987Z,42.76
2018-06-15T17:26:47.604Z,42.84
2018-06-15T17:29:16.965Z,43.78
2018-06-15T17:31:46.321Z,44.56
2018-06-15T17:34:16.307Z,44.62
2018-06-15T17:36:46.320Z,45.50
2018-06-15T17:39:15.825Z,45.41
2018-06-15T17:41:45.860Z,45.59
2018-06-15T17:44:15.213Z,46.42
2018-06-15T17:46:45.128Z,46.16
2018-06-15T17:49:14.721Z,46.51
2018-06-15T17:51:44.612Z,46.31
2018-06-15T17:54:14.004Z,46.17
2018-06-15T17:56:43.544Z,46.36
2018-06-15T17:59:13.176Z,46.93
2018-06-15T18:01:42.550Z,47.01
2018-06-15T18:04:12.121Z,46.82
2018-06-15T18:06:41.684Z,47.45
2018-06-15T18:09:11.750Z,47.60
2018-06-15T18:11:44.298Z,47.42
2018-06-15T18:14:13.661Z,47.35
2018-06-15T18:16:43.008Z,47.79
2018-06-15T18:19:12.348Z,48.09
2018-06-15T18:21:41.678Z,48.26
2018-06-15T18:24:11.130Z,48.42
2018-06-15T18:26:40.516Z,48.32
2018-06-15T18:29:10.016Z,48.20
2018-06-15T18:31:39.542Z,48.52
2018-06-15T18:34:09.173Z,48.73
2018-06-15T18:36:38.832Z,47.98
2018-06-15T18:39:11.214Z,48.38
2018-06-15T18:41:40.564Z,48.15
2018-06-15T18:44:10.386Z,48.49
2018-06-15T18:46:39.829Z,48.47
2018-06-15T18:49:09.284Z,48.55
2018-06-15T18:51:38.656Z,48.29
2018-06-15T18:54:08.124Z,48.47
2018-06-15T18:56:37.512Z,48.25
2018-06-15T18:59:06.882Z,48.26
2018-06-15T19:01:36.461Z,48.66
2018-06-15T19:04:06.284Z,48.66
2018-06-15T19:06:35.852Z,48.13
2018-06-15T19:09:07.804Z,48.18
2018-06-15T19:11:37.334Z,48.42
2018-06-15T19:14:06.871Z,47.98
2018-06-15T19:16:36.265Z,48.49
2018-06-15T19:19:05.998Z,48.07
2018-06-15T19:21:35.737Z,48.40
2018-06-15T19:24:05.439Z,47.86
2018-06-15T19:26:34.850Z,48.21
2018-06-15T19:29:04.456Z,48.17
2018-06-15T19:31:33.904Z,47.82
2018-06-15T19:34:03.283Z,48.16
2018-06-15T19:36:32.700Z,48.32
2018-06-15T19:39:02.440Z,48.33
2018-06-15T19:41:32.050Z,47.71
2018-06-15T19:44:01.728Z,47.74
2018-06-15T19:46:31.239Z,48.35
2018-06-15T19:49:00.628Z,48.19
2018-06-15T19:51:30.277Z,48.64
2018-06-15T19:53:59.640Z,48.73
2018-06-15T19:56:29.268Z,48.67
2018-06-15T19:58:58.668Z,48.81
2018-06-15T20:01:28.547Z,49.33
2018-06-15T20:03:57.903Z,48.63
2018-06-15T20:06:27.540Z,49.02
2018-06-15T20:08:57.598Z,48.69
2018-06-15T20:11:26.947Z,48.25
2018-06-15T20:13:56.388Z,48.46
2018-06-15T20:16:25.745Z,48.40
2018-06-15T20:18:55.262Z,47.79
2018-06-15T20:21:25.090Z,48.55
2018-06-15T20:23:54.427Z,48.67
2018-06-15T20:26:23.802Z,48.10
2018-06-15T20:28:53.154Z,48.63
2018-06-15T20:31:22.665Z,48.04
2018-06-15T20:33:52.292Z,48.18
2018-06-15T20:36:21.868Z,47.98
2018-06-15T20:38:51.572Z,47.88
2018-06-15T20:41:21.126Z,48.30
2018-06-15T20:43:50.716Z,48.26
2018-06-15T20:46:20.978Z,48.25
2018-06-15T20:48:50.573Z,48.54
2018-06-15T20:51:20.017Z,48.51
2018-06-15T20:53:49.989Z,48.44
2018-06-15T20:56:19.709Z,48.48
2018-06-15T20:58:49.280Z,48.78
2018-06-15T21:01:18.904Z,48.70
2018-06-15T21:03:48.274Z,48.76
2018-06-15T21:06:17.630Z,49.34
2018-06-15T21:08:47.081Z,49.03
2018-06-15T21:11:17.356Z,49.08
2018-06-15T21:13:46.709Z,49.33
2018-06-15T21:16:16.223Z,48.79
2018-06-15T21:18:45.544Z,49.44
2018-06-15T21:21:15.135Z,49.36
2018-06-15T21:23:44.728Z,49.38
2018-06-15T21:26:14.073Z,49.19
2018-06-15T21:28:43.655Z,49.28
2018-06-15T21:31:12.989Z,49.26
2018-06-15T21:33:42.560Z,49.43
2018-06-15T21:36:12.167Z,48.91
2018-06-15T21:38:41.771Z,49.00
2018-06-15T21:41:11.512Z,49.60
2018-06-15T21:43:41.252Z,49.90
2018-06-15T21:46:10.916Z,49.24
2018-06-15T21:48:40.268Z,49.39
2018-06-15T21:51:10.735Z,49.77
2018-06-15T21:53:40.092Z,49.87
2018-06-15T21:56:10.050Z,49.71
2018-06-15T21:58:39.576Z,49.74
2018-06-15T22:01:08.970Z,50.11
2018-06-15T22:03:38.470Z,49.94
2018-06-15T22:06:08.079Z,49.89
2018-06-15T22:08:37.721Z,49.95
2018-06-15T22:11:07.089Z,50.33
2018-06-15T22:13:36.596Z,49.97
2018-06-15T22:16:07.140Z,50.35
2018-06-15T22:18:36.481Z,50.20
2018-06-15T22:21:06.085Z,50.54
2018-06-15T22:23:35.464Z,50.22
2018-06-15T22:26:05.114Z,50.32
2018-06-15T22:28:34.669Z,50.17
2018-06-15T22:31:04.241Z,50.59
2018-06-15T22:33:33.771Z,50.43
2018-06-15T22:36:03.254Z,50.33
2018-06-15T22:38:32.749Z,50.21
2018-06-15T22:41:02.093Z,50.60
2018-06-15T22:43:31.497Z,50.62
2018-06-15T22:46:00.930Z,50.30
2018-06-15T22:48:30.311Z,50.29
2018-06-15T22:50:59.902Z,50.83
2018-06-15T22:53:30.131Z,50.92
2018-06-15T22:55:59.636Z,50.43
2018-06-15T22:58:29.054Z,50.67
2018-06-15T23:00:58.417Z,51.13
2018-06-15T23:03:27.856Z,50.93
2018-06-15T23:05:57.405Z,50.53
2018-06-15T23:08:27.310Z,50.61
2018-06-15T23:10:57.250Z,51.09
2018-06-15T23:13:26.908Z,50.94
2018-06-15T23:15:56.505Z,51.24
2018-06-15T23:18:26.358Z,51.12
2018-06-15T23:20:55.699Z,50.88
2018-06-15T23:23:25.292Z,50.91
2018-06-15T23:25:55.697Z,51.46
2018-06-15T23:28:25.183Z,51.21
2018-06-15T23:30:54.552Z,51.33
2018-06-15T23:33:23.907Z,51.40
2018-06-15T23:35:53.358Z,51.75
2018-06-15T23:38:22.750Z,51.54
2018-06-15T23:40:52.126Z,51.96
2018-06-15T23:43:22.513Z,52.05
2018-06-15T23:45:52.111Z,51.76
2018-06-15T23:48:21.459Z,51.91
2018-06-15T23:50:50.799Z,52.01
2018-06-15T23:53:20.285Z,51.77
2018-06-15T23:55:49.927Z,52.52
2018-06-15T23:58:19.484Z,51.91
